Lake Como, Florida
Current Conditions -  °F | °C
As of 3:35 AM on Friday 31 Oct 2014 (Local Time) from KDED Reporting Station
Broken Clouds Broken Clouds  
Wind Chill: 64°   Ceiling: 6000
Heat Index: 64°   Visibility: 10mi
Dew Point: 63°   Wind: 5mph
Humidity: 94%   Direction: 310°NW
Pressure: 29.86"   Gusts: NA
Location:  29.48°N, 81.57°W
Report Text: KDED 310735Z AUTO 31004KT 10SM FEW042 BKN060 18/17 A2986 RMK AO1
Loading
Personal Weather Stations






























Interactive Weather Map
Tropical Storm Tracking
New forecast layout! Learn more

10-Day Weather Forecast

Advertisements
Track Severe Weather on mobile